sensor_id;sensor_type;location;lat;lon;timestamp;P1;durP1;ratioP1;P2;durP2;ratioP2
51228;SDS011;37304;52.216;6.874;2023-04-15T00:04:02;4.27;;;2.30;;
51228;SDS011;37304;52.216;6.874;2023-04-15T00:09:02;5.93;;;2.67;;
51228;SDS011;37304;52.216;6.874;2023-04-15T00:14:02;4.17;;;2.40;;
51228;SDS011;37304;52.216;6.874;2023-04-15T00:24:03;5.20;;;3.17;;
51228;SDS011;37304;52.216;6.874;2023-04-15T00:29:04;4.97;;;2.50;;
51228;SDS011;37304;52.216;6.874;2023-04-15T00:34:05;6.93;;;2.88;;
51228;SDS011;37304;52.216;6.874;2023-04-15T00:39:05;5.60;;;2.87;;
51228;SDS011;37304;52.216;6.874;2023-04-15T00:44:06;7.00;;;3.40;;
51228;SDS011;37304;52.216;6.874;2023-04-15T00:49:06;7.45;;;4.45;;
51228;SDS011;37304;52.216;6.874;2023-04-15T00:54:07;5.07;;;3.03;;
51228;SDS011;37304;52.216;6.874;2023-04-15T00:59:07;5.30;;;3.33;;
51228;SDS011;37304;52.216;6.874;2023-04-15T01:04:08;8.10;;;4.18;;
51228;SDS011;37304;52.216;6.874;2023-04-15T01:09:10;6.07;;;3.53;;
51228;SDS011;37304;52.216;6.874;2023-04-15T01:14:10;3.97;;;3.50;;
51228;SDS011;37304;52.216;6.874;2023-04-15T01:19:11;5.30;;;3.20;;
51228;SDS011;37304;52.216;6.874;2023-04-15T01:24:13;11.68;;;3.80;;
51228;SDS011;37304;52.216;6.874;2023-04-15T01:29:17;7.40;;;3.47;;
51228;SDS011;37304;52.216;6.874;2023-04-15T01:34:18;6.47;;;3.25;;
51228;SDS011;37304;52.216;6.874;2023-04-15T01:39:18;6.20;;;3.17;;
51228;SDS011;37304;52.216;6.874;2023-04-15T01:44:19;8.23;;;3.53;;
51228;SDS011;37304;52.216;6.874;2023-04-15T01:49:20;4.65;;;2.83;;
51228;SDS011;37304;52.216;6.874;2023-04-15T01:54:20;4.97;;;3.47;;
51228;SDS011;37304;52.216;6.874;2023-04-15T01:59:20;6.90;;;4.43;;
51228;SDS011;37304;52.216;6.874;2023-04-15T02:04:21;5.85;;;3.30;;
51228;SDS011;37304;52.216;6.874;2023-04-15T02:09:22;7.82;;;4.05;;
51228;SDS011;37304;52.216;6.874;2023-04-15T02:14:22;7.77;;;3.90;;
51228;SDS011;37304;52.216;6.874;2023-04-15T02:19:23;6.38;;;3.67;;
51228;SDS011;37304;52.216;6.874;2023-04-15T02:24:24;7.80;;;4.15;;
51228;SDS011;37304;52.216;6.874;2023-04-15T02:29:24;6.73;;;4.40;;
51228;SDS011;37304;52.216;6.874;2023-04-15T02:34:25;7.90;;;4.30;;
51228;SDS011;37304;52.216;6.874;2023-04-15T02:39:26;5.65;;;3.15;;
51228;SDS011;37304;52.216;6.874;2023-04-15T02:44:26;7.23;;;3.60;;
51228;SDS011;37304;52.216;6.874;2023-04-15T02:49:27;8.35;;;4.32;;
51228;SDS011;37304;52.216;6.874;2023-04-15T02:54:29;10.52;;;4.05;;
51228;SDS011;37304;52.216;6.874;2023-04-15T02:59:31;5.88;;;3.33;;
51228;SDS011;37304;52.216;6.874;2023-04-15T03:04:31;10.25;;;3.78;;
51228;SDS011;37304;52.216;6.874;2023-04-15T03:09:32;6.03;;;3.70;;
51228;SDS011;37304;52.216;6.874;2023-04-15T03:14:32;6.17;;;3.47;;
51228;SDS011;37304;52.216;6.874;2023-04-15T03:19:33;8.33;;;3.77;;
51228;SDS011;37304;52.216;6.874;2023-04-15T03:24:33;4.93;;;3.43;;
51228;SDS011;37304;52.216;6.874;2023-04-15T03:29:33;9.13;;;3.93;;
51228;SDS011;37304;52.216;6.874;2023-04-15T03:34:34;6.03;;;3.37;;
51228;SDS011;37304;52.216;6.874;2023-04-15T03:39:34;6.93;;;4.00;;
51228;SDS011;37304;52.216;6.874;2023-04-15T03:44:34;8.57;;;4.50;;
51228;SDS011;37304;52.216;6.874;2023-04-15T03:49:35;7.70;;;4.43;;
51228;SDS011;37304;52.216;6.874;2023-04-15T03:54:36;9.55;;;4.38;;
51228;SDS011;37304;52.216;6.874;2023-04-15T03:59:36;8.87;;;4.60;;
51228;SDS011;37304;52.216;6.874;2023-04-15T04:04:36;8.97;;;4.63;;
51228;SDS011;37304;52.216;6.874;2023-04-15T04:09:37;10.23;;;4.90;;
51228;SDS011;37304;52.216;6.874;2023-04-15T04:14:39;7.82;;;4.93;;
51228;SDS011;37304;52.216;6.874;2023-04-15T04:19:40;10.07;;;5.03;;
51228;SDS011;37304;52.216;6.874;2023-04-15T04:24:40;9.50;;;4.80;;
51228;SDS011;37304;52.216;6.874;2023-04-15T04:29:40;7.60;;;4.43;;
51228;SDS011;37304;52.216;6.874;2023-04-15T04:34:41;9.87;;;4.67;;
51228;SDS011;37304;52.216;6.874;2023-04-15T04:39:41;11.97;;;4.43;;
51228;SDS011;37304;52.216;6.874;2023-04-15T04:44:41;6.90;;;3.70;;
51228;SDS011;37304;52.216;6.874;2023-04-15T04:49:41;7.07;;;4.30;;
51228;SDS011;37304;52.216;6.874;2023-04-15T04:54:42;6.50;;;4.27;;
51228;SDS011;37304;52.216;6.874;2023-04-15T04:59:42;8.87;;;4.17;;
51228;SDS011;37304;52.216;6.874;2023-04-15T05:04:42;11.57;;;4.20;;
51228;SDS011;37304;52.216;6.874;2023-04-15T05:09:43;8.67;;;4.80;;
51228;SDS011;37304;52.216;6.874;2023-04-15T05:14:43;9.77;;;4.38;;
51228;SDS011;37304;52.216;6.874;2023-04-15T05:19:45;9.40;;;4.68;;
51228;SDS011;37304;52.216;6.874;2023-04-15T05:24:46;14.50;;;5.27;;
51228;SDS011;37304;52.216;6.874;2023-04-15T05:29:46;7.75;;;4.15;;
51228;SDS011;37304;52.216;6.874;2023-04-15T05:34:47;8.18;;;4.63;;
51228;SDS011;37304;52.216;6.874;2023-04-15T05:39:47;10.67;;;4.90;;
51228;SDS011;37304;52.216;6.874;2023-04-15T05:44:48;10.97;;;5.27;;
51228;SDS011;37304;52.216;6.874;2023-04-15T05:49:48;7.13;;;4.45;;
51228;SDS011;37304;52.216;6.874;2023-04-15T05:54:48;12.47;;;5.87;;
51228;SDS011;37304;52.216;6.874;2023-04-15T05:59:49;11.57;;;6.10;;
51228;SDS011;37304;52.216;6.874;2023-04-15T06:04:51;14.98;;;6.38;;
51228;SDS011;37304;52.216;6.874;2023-04-15T06:09:52;11.85;;;6.32;;
51228;SDS011;37304;52.216;6.874;2023-04-15T06:14:53;12.77;;;6.27;;
51228;SDS011;37304;52.216;6.874;2023-04-15T06:19:53;15.10;;;6.13;;
51228;SDS011;37304;52.216;6.874;2023-04-15T06:29:55;13.30;;;6.23;;
51228;SDS011;37304;52.216;6.874;2023-04-15T06:34:55;16.43;;;6.30;;
51228;SDS011;37304;52.216;6.874;2023-04-15T06:39:56;10.93;;;6.40;;
51228;SDS011;37304;52.216;6.874;2023-04-15T06:44:56;12.27;;;5.57;;
51228;SDS011;37304;52.216;6.874;2023-04-15T06:49:56;10.70;;;4.85;;
51228;SDS011;37304;52.216;6.874;2023-04-15T06:54:57;10.37;;;5.30;;
51228;SDS011;37304;52.216;6.874;2023-04-15T06:59:58;10.02;;;5.57;;
51228;SDS011;37304;52.216;6.874;2023-04-15T07:10:00;9.88;;;4.97;;
51228;SDS011;37304;52.216;6.874;2023-04-15T07:15:02;14.07;;;5.90;;
51228;SDS011;37304;52.216;6.874;2023-04-15T07:25:04;12.43;;;6.53;;
51228;SDS011;37304;52.216;6.874;2023-04-15T07:30:05;10.18;;;5.50;;
51228;SDS011;37304;52.216;6.874;2023-04-15T07:40:06;11.23;;;5.70;;
51228;SDS011;37304;52.216;6.874;2023-04-15T07:50:11;10.70;;;5.18;;
51228;SDS011;37304;52.216;6.874;2023-04-15T07:55:12;11.20;;;5.88;;
51228;SDS011;37304;52.216;6.874;2023-04-15T08:00:12;10.23;;;5.10;;
51228;SDS011;37304;52.216;6.874;2023-04-15T08:05:13;13.15;;;6.13;;
51228;SDS011;37304;52.216;6.874;2023-04-15T08:10:14;9.07;;;5.50;;
51228;SDS011;37304;52.216;6.874;2023-04-15T08:15:14;16.50;;;5.97;;
51228;SDS011;37304;52.216;6.874;2023-04-15T08:25:16;8.95;;;5.00;;
51228;SDS011;37304;52.216;6.874;2023-04-15T08:30:16;6.10;;;4.20;;
51228;SDS011;37304;52.216;6.874;2023-04-15T08:35:17;9.60;;;4.88;;
51228;SDS011;37304;52.216;6.874;2023-04-15T08:40:32;8.57;;;4.10;;
51228;SDS011;37304;52.216;6.874;2023-04-15T08:45:43;7.10;;;4.05;;
51228;SDS011;37304;52.216;6.874;2023-04-15T08:50:45;8.32;;;4.85;;
51228;SDS011;37304;52.216;6.874;2023-04-15T08:55:49;8.80;;;4.47;;
51228;SDS011;37304;52.216;6.874;2023-04-15T09:00:51;8.93;;;4.50;;
51228;SDS011;37304;52.216;6.874;2023-04-15T09:10:52;7.22;;;3.35;;
51228;SDS011;37304;52.216;6.874;2023-04-15T09:20:54;6.25;;;3.15;;
51228;SDS011;37304;52.216;6.874;2023-04-15T09:30:57;9.07;;;3.78;;
51228;SDS011;37304;52.216;6.874;2023-04-15T09:36:01;5.65;;;2.80;;
51228;SDS011;37304;52.216;6.874;2023-04-15T09:41:03;6.97;;;3.15;;
51228;SDS011;37304;52.216;6.874;2023-04-15T09:46:18;7.82;;;2.50;;
51228;SDS011;37304;52.216;6.874;2023-04-15T09:56:35;4.38;;;2.33;;
51228;SDS011;37304;52.216;6.874;2023-04-15T10:01:37;5.03;;;2.22;;
51228;SDS011;37304;52.216;6.874;2023-04-15T10:06:41;3.92;;;2.35;;
51228;SDS011;37304;52.216;6.874;2023-04-15T10:16:43;4.05;;;2.38;;
51228;SDS011;37304;52.216;6.874;2023-04-15T10:21:47;4.43;;;2.42;;
51228;SDS011;37304;52.216;6.874;2023-04-15T10:26:49;4.22;;;2.50;;
51228;SDS011;37304;52.216;6.874;2023-04-15T10:31:50;4.50;;;2.17;;
51228;SDS011;37304;52.216;6.874;2023-04-15T10:36:54;3.22;;;1.83;;
51228;SDS011;37304;52.216;6.874;2023-04-15T10:42:06;4.45;;;1.90;;
51228;SDS011;37304;52.216;6.874;2023-04-15T10:47:14;4.53;;;1.63;;
51228;SDS011;37304;52.216;6.874;2023-04-15T10:52:21;1.88;;;1.52;;
51228;SDS011;37304;52.216;6.874;2023-04-15T10:57:26;4.25;;;1.90;;
51228;SDS011;37304;52.216;6.874;2023-04-15T11:07:57;4.45;;;1.92;;
51228;SDS011;37304;52.216;6.874;2023-04-15T11:18:07;2.53;;;1.65;;
51228;SDS011;37304;52.216;6.874;2023-04-15T11:23:09;2.38;;;1.77;;
51228;SDS011;37304;52.216;6.874;2023-04-15T11:33:11;4.78;;;1.70;;
51228;SDS011;37304;52.216;6.874;2023-04-15T11:38:13;4.38;;;1.90;;
51228;SDS011;37304;52.216;6.874;2023-04-15T11:43:16;3.47;;;1.73;;
51228;SDS011;37304;52.216;6.874;2023-04-15T11:48:21;3.15;;;1.92;;
51228;SDS011;37304;52.216;6.874;2023-04-15T11:53:22;2.85;;;1.70;;
51228;SDS011;37304;52.216;6.874;2023-04-15T12:03:28;2.15;;;1.45;;
51228;SDS011;37304;52.216;6.874;2023-04-15T12:08:49;9.50;;;2.10;;
51228;SDS011;37304;52.216;6.874;2023-04-15T12:13:53;3.42;;;2.10;;
51228;SDS011;37304;52.216;6.874;2023-04-15T12:19:16;8.18;;;2.13;;
51228;SDS011;37304;52.216;6.874;2023-04-15T12:24:23;7.00;;;2.10;;
51228;SDS011;37304;52.216;6.874;2023-04-15T12:29:25;4.90;;;1.52;;
51228;SDS011;37304;52.216;6.874;2023-04-15T12:34:28;19.25;;;5.75;;
51228;SDS011;37304;52.216;6.874;2023-04-15T12:39:31;24.73;;;4.53;;
51228;SDS011;37304;52.216;6.874;2023-04-15T12:44:35;18.13;;;4.60;;
51228;SDS011;37304;52.216;6.874;2023-04-15T12:49:37;4.07;;;1.58;;
51228;SDS011;37304;52.216;6.874;2023-04-15T12:54:38;5.90;;;2.50;;
51228;SDS011;37304;52.216;6.874;2023-04-15T13:04:39;3.03;;;1.63;;
51228;SDS011;37304;52.216;6.874;2023-04-15T13:14:55;6.28;;;2.65;;
51228;SDS011;37304;52.216;6.874;2023-04-15T13:24:56;4.07;;;2.17;;
51228;SDS011;37304;52.216;6.874;2023-04-15T13:29:57;8.23;;;2.28;;
51228;SDS011;37304;52.216;6.874;2023-04-15T13:34:59;22.98;;;5.78;;
51228;SDS011;37304;52.216;6.874;2023-04-15T13:40:00;25.10;;;6.38;;
51228;SDS011;37304;52.216;6.874;2023-04-15T13:50:00;5.18;;;1.70;;
51228;SDS011;37304;52.216;6.874;2023-04-15T13:55:02;1.83;;;1.20;;
51228;SDS011;37304;52.216;6.874;2023-04-15T14:00:03;2.47;;;1.50;;
51228;SDS011;37304;52.216;6.874;2023-04-15T14:05:05;5.35;;;1.65;;
51228;SDS011;37304;52.216;6.874;2023-04-15T14:15:06;4.07;;;1.93;;
51228;SDS011;37304;52.216;6.874;2023-04-15T14:25:07;5.68;;;1.42;;
51228;SDS011;37304;52.216;6.874;2023-04-15T14:35:08;5.63;;;1.60;;
51228;SDS011;37304;52.216;6.874;2023-04-15T14:45:09;3.73;;;0.93;;
51228;SDS011;37304;52.216;6.874;2023-04-15T14:55:10;2.85;;;1.10;;
51228;SDS011;37304;52.216;6.874;2023-04-15T15:00:11;2.00;;;1.13;;
51228;SDS011;37304;52.216;6.874;2023-04-15T15:10:12;5.85;;;1.17;;
51228;SDS011;37304;52.216;6.874;2023-04-15T15:20:13;3.33;;;1.75;;
51228;SDS011;37304;52.216;6.874;2023-04-15T15:25:15;5.95;;;1.55;;
51228;SDS011;37304;52.216;6.874;2023-04-15T15:35:19;5.20;;;0.95;;
51228;SDS011;37304;52.216;6.874;2023-04-15T15:40:21;1.83;;;0.90;;
51228;SDS011;37304;52.216;6.874;2023-04-15T15:45:22;2.67;;;1.20;;
51228;SDS011;37304;52.216;6.874;2023-04-15T15:55:23;2.20;;;1.40;;
51228;SDS011;37304;52.216;6.874;2023-04-15T16:00:24;2.60;;;1.48;;
51228;SDS011;37304;52.216;6.874;2023-04-15T16:10:25;2.40;;;1.00;;
51228;SDS011;37304;52.216;6.874;2023-04-15T16:15:25;2.70;;;1.40;;
51228;SDS011;37304;52.216;6.874;2023-04-15T16:25:27;3.40;;;1.25;;
51228;SDS011;37304;52.216;6.874;2023-04-15T16:30:28;6.38;;;1.60;;
51228;SDS011;37304;52.216;6.874;2023-04-15T16:35:28;7.30;;;2.13;;
51228;SDS011;37304;52.216;6.874;2023-04-15T16:45:29;5.40;;;1.48;;
51228;SDS011;37304;52.216;6.874;2023-04-15T16:50:30;2.58;;;1.70;;
51228;SDS011;37304;52.216;6.874;2023-04-15T16:55:30;3.30;;;1.60;;
51228;SDS011;37304;52.216;6.874;2023-04-15T17:00:30;5.77;;;2.23;;
51228;SDS011;37304;52.216;6.874;2023-04-15T17:10:32;4.37;;;1.70;;
51228;SDS011;37304;52.216;6.874;2023-04-15T17:15:32;4.60;;;1.92;;
51228;SDS011;37304;52.216;6.874;2023-04-15T17:20:33;4.53;;;2.27;;
51228;SDS011;37304;52.216;6.874;2023-04-15T17:25:33;6.07;;;2.90;;
51228;SDS011;37304;52.216;6.874;2023-04-15T17:30:34;6.23;;;1.83;;
51228;SDS011;37304;52.216;6.874;2023-04-15T17:35:34;7.40;;;1.73;;
51228;SDS011;37304;52.216;6.874;2023-04-15T17:40:34;3.60;;;1.57;;
51228;SDS011;37304;52.216;6.874;2023-04-15T17:45:35;3.97;;;1.53;;
51228;SDS011;37304;52.216;6.874;2023-04-15T17:50:36;2.23;;;1.73;;
51228;SDS011;37304;52.216;6.874;2023-04-15T17:55:37;4.97;;;2.78;;
51228;SDS011;37304;52.216;6.874;2023-04-15T18:00:37;6.27;;;1.93;;
51228;SDS011;37304;52.216;6.874;2023-04-15T18:05:38;6.50;;;1.93;;
51228;SDS011;37304;52.216;6.874;2023-04-15T18:10:41;9.15;;;3.25;;
51228;SDS011;37304;52.216;6.874;2023-04-15T18:15:41;4.33;;;1.97;;
51228;SDS011;37304;52.216;6.874;2023-04-15T18:20:42;6.25;;;2.40;;
51228;SDS011;37304;52.216;6.874;2023-04-15T18:25:42;3.57;;;2.17;;
51228;SDS011;37304;52.216;6.874;2023-04-15T18:30:44;5.15;;;2.30;;
51228;SDS011;37304;52.216;6.874;2023-04-15T18:35:44;7.03;;;1.77;;
51228;SDS011;37304;52.216;6.874;2023-04-15T18:40:45;8.03;;;2.77;;
51228;SDS011;37304;52.216;6.874;2023-04-15T18:45:45;9.27;;;2.00;;
51228;SDS011;37304;52.216;6.874;2023-04-15T18:50:45;9.00;;;3.33;;
51228;SDS011;37304;52.216;6.874;2023-04-15T19:00:47;8.48;;;3.20;;
51228;SDS011;37304;52.216;6.874;2023-04-15T19:05:47;5.73;;;2.70;;
51228;SDS011;37304;52.216;6.874;2023-04-15T19:10:48;7.95;;;3.08;;
51228;SDS011;37304;52.216;6.874;2023-04-15T19:15:48;11.07;;;2.80;;
51228;SDS011;37304;52.216;6.874;2023-04-15T19:20:48;9.43;;;3.00;;
51228;SDS011;37304;52.216;6.874;2023-04-15T19:25:51;7.03;;;2.63;;
51228;SDS011;37304;52.216;6.874;2023-04-15T19:30:51;9.30;;;3.07;;
51228;SDS011;37304;52.216;6.874;2023-04-15T19:35:52;10.07;;;3.53;;
51228;SDS011;37304;52.216;6.874;2023-04-15T19:40:52;8.27;;;2.90;;
51228;SDS011;37304;52.216;6.874;2023-04-15T19:45:53;9.57;;;3.87;;
51228;SDS011;37304;52.216;6.874;2023-04-15T19:50:53;14.48;;;3.65;;
51228;SDS011;37304;52.216;6.874;2023-04-15T19:55:54;14.63;;;3.63;;
51228;SDS011;37304;52.216;6.874;2023-04-15T20:00:54;9.48;;;4.55;;
51228;SDS011;37304;52.216;6.874;2023-04-15T20:05:55;11.77;;;4.22;;
51228;SDS011;37304;52.216;6.874;2023-04-15T20:10:56;14.47;;;4.90;;
51228;SDS011;37304;52.216;6.874;2023-04-15T20:15:56;14.90;;;5.20;;
51228;SDS011;37304;52.216;6.874;2023-04-15T20:20:57;13.07;;;4.47;;
51228;SDS011;37304;52.216;6.874;2023-04-15T20:25:58;10.90;;;4.37;;
51228;SDS011;37304;52.216;6.874;2023-04-15T20:31:01;10.85;;;4.57;;
51228;SDS011;37304;52.216;6.874;2023-04-15T20:36:02;13.65;;;5.65;;
51228;SDS011;37304;52.216;6.874;2023-04-15T20:41:02;12.23;;;4.72;;
51228;SDS011;37304;52.216;6.874;2023-04-15T20:46:03;11.77;;;5.87;;
51228;SDS011;37304;52.216;6.874;2023-04-15T20:51:04;12.43;;;5.60;;
51228;SDS011;37304;52.216;6.874;2023-04-15T21:01:05;14.88;;;4.47;;
51228;SDS011;37304;52.216;6.874;2023-04-15T21:06:08;12.20;;;4.93;;
51228;SDS011;37304;52.216;6.874;2023-04-15T21:11:08;7.87;;;4.23;;
51228;SDS011;37304;52.216;6.874;2023-04-15T21:16:09;11.40;;;4.13;;
51228;SDS011;37304;52.216;6.874;2023-04-15T21:21:09;13.33;;;5.30;;
51228;SDS011;37304;52.216;6.874;2023-04-15T21:26:09;15.00;;;6.30;;
51228;SDS011;37304;52.216;6.874;2023-04-15T21:31:10;16.60;;;7.13;;
51228;SDS011;37304;52.216;6.874;2023-04-15T21:36:10;12.17;;;5.07;;
51228;SDS011;37304;52.216;6.874;2023-04-15T21:41:11;15.35;;;6.05;;
51228;SDS011;37304;52.216;6.874;2023-04-15T21:46:12;15.65;;;5.88;;
51228;SDS011;37304;52.216;6.874;2023-04-15T21:51:12;23.27;;;7.63;;
51228;SDS011;37304;52.216;6.874;2023-04-15T21:56:13;27.03;;;6.70;;
51228;SDS011;37304;52.216;6.874;2023-04-15T22:01:13;14.47;;;5.53;;
51228;SDS011;37304;52.216;6.874;2023-04-15T22:06:14;20.23;;;5.90;;
51228;SDS011;37304;52.216;6.874;2023-04-15T22:11:19;18.10;;;5.60;;
51228;SDS011;37304;52.216;6.874;2023-04-15T22:16:27;16.50;;;6.00;;
51228;SDS011;37304;52.216;6.874;2023-04-15T22:21:27;13.35;;;5.25;;
51228;SDS011;37304;52.216;6.874;2023-04-15T22:26:28;20.00;;;7.55;;
51228;SDS011;37304;52.216;6.874;2023-04-15T22:31:28;15.50;;;6.87;;
51228;SDS011;37304;52.216;6.874;2023-04-15T22:36:29;18.90;;;5.53;;
51228;SDS011;37304;52.216;6.874;2023-04-15T22:41:30;13.43;;;6.22;;
51228;SDS011;37304;52.216;6.874;2023-04-15T22:46:31;13.00;;;5.80;;
51228;SDS011;37304;52.216;6.874;2023-04-15T22:51:31;16.27;;;6.60;;
51228;SDS011;37304;52.216;6.874;2023-04-15T22:56:32;16.23;;;6.32;;
51228;SDS011;37304;52.216;6.874;2023-04-15T23:01:35;20.67;;;6.40;;
51228;SDS011;37304;52.216;6.874;2023-04-15T23:06:37;21.42;;;7.45;;
51228;SDS011;37304;52.216;6.874;2023-04-15T23:11:37;26.98;;;6.00;;
51228;SDS011;37304;52.216;6.874;2023-04-15T23:16:38;22.57;;;6.90;;
51228;SDS011;37304;52.216;6.874;2023-04-15T23:21:38;20.07;;;6.37;;
51228;SDS011;37304;52.216;6.874;2023-04-15T23:26:38;14.63;;;6.63;;
51228;SDS011;37304;52.216;6.874;2023-04-15T23:31:39;22.20;;;7.25;;
51228;SDS011;37304;52.216;6.874;2023-04-15T23:36:40;21.02;;;8.52;;
51228;SDS011;37304;52.216;6.874;2023-04-15T23:41:41;22.13;;;8.43;;
51228;SDS011;37304;52.216;6.874;2023-04-15T23:56:41;16.85;;;6.30;;
